sensor_id;sensor_type;location;lat;lon;timestamp;temperature;humidity
8988;DHT22;4529;51.360;12.474;2023-03-25T00:04:48;11.00;99.90
8988;DHT22;4529;51.360;12.474;2023-03-25T00:09:49;11.00;99.90
8988;DHT22;4529;51.360;12.474;2023-03-25T00:14:52;10.90;99.90
8988;DHT22;4529;51.360;12.474;2023-03-25T00:19:57;10.90;99.90
8988;DHT22;4529;51.360;12.474;2023-03-25T00:25:01;10.90;99.90
8988;DHT22;4529;51.360;12.474;2023-03-25T00:30:05;11.00;99.90
8988;DHT22;4529;51.360;12.474;2023-03-25T00:35:09;11.00;99.90
8988;DHT22;4529;51.360;12.474;2023-03-25T00:40:13;11.00;99.90
8988;DHT22;4529;51.360;12.474;2023-03-25T00:45:17;11.00;99.90
8988;DHT22;4529;51.360;12.474;2023-03-25T00:50:20;11.00;99.90
8988;DHT22;4529;51.360;12.474;2023-03-25T00:55:24;11.10;99.90
8988;DHT22;4529;51.360;12.474;2023-03-25T01:00:28;11.20;99.90
8988;DHT22;4529;51.360;12.474;2023-03-25T01:05:32;11.20;99.90
8988;DHT22;4529;51.360;12.474;2023-03-25T01:10:36;11.20;99.90
8988;DHT22;4529;51.360;12.474;2023-03-25T01:15:40;11.20;99.90
8988;DHT22;4529;51.360;12.474;2023-03-25T01:20:44;11.20;99.90
8988;DHT22;4529;51.360;12.474;2023-03-25T01:25:48;11.20;99.90
8988;DHT22;4529;51.360;12.474;2023-03-25T01:30:51;11.20;99.90
8988;DHT22;4529;51.360;12.474;2023-03-25T01:35:55;11.20;99.90
8988;DHT22;4529;51.360;12.474;2023-03-25T01:40:58;11.30;99.90
8988;DHT22;4529;51.360;12.474;2023-03-25T01:46:02;11.30;99.90
8988;DHT22;4529;51.360;12.474;2023-03-25T01:51:09;11.30;99.90
8988;DHT22;4529;51.360;12.474;2023-03-25T01:56:12;11.30;99.90
8988;DHT22;4529;51.360;12.474;2023-03-25T02:01:15;11.30;99.90
8988;DHT22;4529;51.360;12.474;2023-03-25T02:06:24;11.30;99.90
8988;DHT22;4529;51.360;12.474;2023-03-25T02:11:27;11.40;99.90
8988;DHT22;4529;51.360;12.474;2023-03-25T02:16:42;11.30;99.90
8988;DHT22;4529;51.360;12.474;2023-03-25T02:27:42;11.40;99.90
8988;DHT22;4529;51.360;12.474;2023-03-25T02:33:31;11.40;99.90
8988;DHT22;4529;51.360;12.474;2023-03-25T02:39:02;11.50;99.90
8988;DHT22;4529;51.360;12.474;2023-03-25T02:44:28;11.40;99.90
8988;DHT22;4529;51.360;12.474;2023-03-25T02:50:13;11.40;99.90
8988;DHT22;4529;51.360;12.474;2023-03-25T02:54:36;11.40;99.90
8988;DHT22;4529;51.360;12.474;2023-03-25T02:59:40;11.30;99.90
8988;DHT22;4529;51.360;12.474;2023-03-25T03:04:50;11.20;99.90
8988;DHT22;4529;51.360;12.474;2023-03-25T03:10:09;11.20;99.90
8988;DHT22;4529;51.360;12.474;2023-03-25T03:26:37;11.10;99.90
8988;DHT22;4529;51.360;12.474;2023-03-25T03:31:55;11.20;99.90
8988;DHT22;4529;51.360;12.474;2023-03-25T03:36:56;11.20;99.90
8988;DHT22;4529;51.360;12.474;2023-03-25T03:42:01;11.20;99.90
8988;DHT22;4529;51.360;12.474;2023-03-25T03:47:04;11.30;99.90
8988;DHT22;4529;51.360;12.474;2023-03-25T03:52:27;11.30;99.90
8988;DHT22;4529;51.360;12.474;2023-03-25T03:57:31;11.40;99.90
8988;DHT22;4529;51.360;12.474;2023-03-25T04:02:44;11.40;99.90
8988;DHT22;4529;51.360;12.474;2023-03-25T04:08:01;11.50;99.90
8988;DHT22;4529;51.360;12.474;2023-03-25T04:13:04;11.50;99.90
8988;DHT22;4529;51.360;12.474;2023-03-25T04:18:07;11.50;99.90
8988;DHT22;4529;51.360;12.474;2023-03-25T04:23:11;11.60;99.90
8988;DHT22;4529;51.360;12.474;2023-03-25T04:28:15;11.50;99.90
8988;DHT22;4529;51.360;12.474;2023-03-25T04:33:22;11.60;99.90
8988;DHT22;4529;51.360;12.474;2023-03-25T04:38:23;11.50;99.90
8988;DHT22;4529;51.360;12.474;2023-03-25T04:43:28;11.60;99.90
8988;DHT22;4529;51.360;12.474;2023-03-25T04:48:32;11.60;99.90
8988;DHT22;4529;51.360;12.474;2023-03-25T04:53:36;11.50;99.90
8988;DHT22;4529;51.360;12.474;2023-03-25T04:58:41;11.50;99.90
8988;DHT22;4529;51.360;12.474;2023-03-25T05:03:44;11.40;99.90
8988;DHT22;4529;51.360;12.474;2023-03-25T05:08:48;11.50;99.90
8988;DHT22;4529;51.360;12.474;2023-03-25T05:13:52;11.40;99.90
8988;DHT22;4529;51.360;12.474;2023-03-25T05:18:55;11.40;99.90
8988;DHT22;4529;51.360;12.474;2023-03-25T05:23:59;11.40;99.90
8988;DHT22;4529;51.360;12.474;2023-03-25T05:29:06;11.30;99.90
8988;DHT22;4529;51.360;12.474;2023-03-25T05:34:09;11.40;99.90
8988;DHT22;4529;51.360;12.474;2023-03-25T05:39:15;11.30;99.90
8988;DHT22;4529;51.360;12.474;2023-03-25T05:44:19;11.30;99.90
8988;DHT22;4529;51.360;12.474;2023-03-25T05:49:23;11.30;99.90
8988;DHT22;4529;51.360;12.474;2023-03-25T05:54:27;11.20;99.90
8988;DHT22;4529;51.360;12.474;2023-03-25T05:59:31;11.20;99.90
8988;DHT22;4529;51.360;12.474;2023-03-25T06:04:34;11.10;99.90
8988;DHT22;4529;51.360;12.474;2023-03-25T06:09:41;11.00;99.90
8988;DHT22;4529;51.360;12.474;2023-03-25T06:14:44;10.90;99.90
8988;DHT22;4529;51.360;12.474;2023-03-25T06:19:48;10.90;99.90
8988;DHT22;4529;51.360;12.474;2023-03-25T06:24:51;10.80;99.90
8988;DHT22;4529;51.360;12.474;2023-03-25T06:29:54;10.80;99.90
8988;DHT22;4529;51.360;12.474;2023-03-25T06:34:58;10.80;99.90
8988;DHT22;4529;51.360;12.474;2023-03-25T06:40:01;11.00;99.90
8988;DHT22;4529;51.360;12.474;2023-03-25T06:45:06;11.10;99.90
8988;DHT22;4529;51.360;12.474;2023-03-25T06:50:09;11.10;99.90
8988;DHT22;4529;51.360;12.474;2023-03-25T06:55:12;11.20;99.90
8988;DHT22;4529;51.360;12.474;2023-03-25T07:00:16;11.20;99.90
8988;DHT22;4529;51.360;12.474;2023-03-25T07:05:20;11.30;99.90
8988;DHT22;4529;51.360;12.474;2023-03-25T07:10:23;11.30;99.90
8988;DHT22;4529;51.360;12.474;2023-03-25T07:15:27;11.30;99.90
8988;DHT22;4529;51.360;12.474;2023-03-25T07:20:30;11.40;99.90
8988;DHT22;4529;51.360;12.474;2023-03-25T07:25:34;11.60;99.90
8988;DHT22;4529;51.360;12.474;2023-03-25T07:30:37;11.60;99.90
8988;DHT22;4529;51.360;12.474;2023-03-25T07:35:41;11.60;99.90
8988;DHT22;4529;51.360;12.474;2023-03-25T07:40:44;11.50;99.90
8988;DHT22;4529;51.360;12.474;2023-03-25T07:45:48;11.30;99.90
8988;DHT22;4529;51.360;12.474;2023-03-25T07:50:51;11.20;99.90
8988;DHT22;4529;51.360;12.474;2023-03-25T07:55:55;11.00;99.90
8988;DHT22;4529;51.360;12.474;2023-03-25T08:00:58;11.00;99.90
8988;DHT22;4529;51.360;12.474;2023-03-25T08:06:02;11.00;99.90
8988;DHT22;4529;51.360;12.474;2023-03-25T08:11:05;11.00;99.90
8988;DHT22;4529;51.360;12.474;2023-03-25T08:16:12;11.00;99.90
8988;DHT22;4529;51.360;12.474;2023-03-25T08:21:12;11.10;99.90
8988;DHT22;4529;51.360;12.474;2023-03-25T08:26:15;11.20;99.90
8988;DHT22;4529;51.360;12.474;2023-03-25T08:31:20;11.20;99.90
8988;DHT22;4529;51.360;12.474;2023-03-25T08:36:24;11.30;99.90
8988;DHT22;4529;51.360;12.474;2023-03-25T08:41:28;11.20;99.90
8988;DHT22;4529;51.360;12.474;2023-03-25T08:46:32;11.20;99.90
8988;DHT22;4529;51.360;12.474;2023-03-25T08:51:36;11.20;99.90
8988;DHT22;4529;51.360;12.474;2023-03-25T08:56:40;11.10;99.90
8988;DHT22;4529;51.360;12.474;2023-03-25T09:01:44;11.10;99.90
8988;DHT22;4529;51.360;12.474;2023-03-25T09:06:48;11.00;99.90
8988;DHT22;4529;51.360;12.474;2023-03-25T09:11:53;11.00;99.90
8988;DHT22;4529;51.360;12.474;2023-03-25T09:16:57;11.00;99.90
8988;DHT22;4529;51.360;12.474;2023-03-25T09:22:01;11.40;99.90
8988;DHT22;4529;51.360;12.474;2023-03-25T09:27:05;11.60;99.90
8988;DHT22;4529;51.360;12.474;2023-03-25T09:32:09;12.10;99.90
8988;DHT22;4529;51.360;12.474;2023-03-25T09:37:13;12.40;99.90
8988;DHT22;4529;51.360;12.474;2023-03-25T09:42:23;12.40;99.90
8988;DHT22;4529;51.360;12.474;2023-03-25T09:47:21;12.40;99.90
8988;DHT22;4529;51.360;12.474;2023-03-25T09:57:49;12.30;99.90
8988;DHT22;4529;51.360;12.474;2023-03-25T10:03:17;12.20;99.90
8988;DHT22;4529;51.360;12.474;2023-03-25T10:08:30;12.20;99.90
8988;DHT22;4529;51.360;12.474;2023-03-25T10:13:39;12.20;99.90
8988;DHT22;4529;51.360;12.474;2023-03-25T10:18:51;12.60;99.90
8988;DHT22;4529;51.360;12.474;2023-03-25T10:24:21;13.00;99.90
8988;DHT22;4529;51.360;12.474;2023-03-25T10:29:35;13.20;99.90
8988;DHT22;4529;51.360;12.474;2023-03-25T10:34:38;13.30;99.90
8988;DHT22;4529;51.360;12.474;2023-03-25T10:39:41;13.00;99.90
8988;DHT22;4529;51.360;12.474;2023-03-25T10:44:45;13.00;99.90
8988;DHT22;4529;51.360;12.474;2023-03-25T10:49:49;12.90;99.90
8988;DHT22;4529;51.360;12.474;2023-03-25T10:54:53;13.00;99.90
8988;DHT22;4529;51.360;12.474;2023-03-25T11:00:05;13.20;99.90
8988;DHT22;4529;51.360;12.474;2023-03-25T11:05:06;13.20;99.90
8988;DHT22;4529;51.360;12.474;2023-03-25T11:10:15;13.40;99.90
8988;DHT22;4529;51.360;12.474;2023-03-25T11:15:23;13.40;99.90
8988;DHT22;4529;51.360;12.474;2023-03-25T11:20:27;13.40;99.90
8988;DHT22;4529;51.360;12.474;2023-03-25T11:25:28;13.30;99.90
8988;DHT22;4529;51.360;12.474;2023-03-25T11:30:29;13.20;99.90
8988;DHT22;4529;51.360;12.474;2023-03-25T11:35:36;13.20;99.90
8988;DHT22;4529;51.360;12.474;2023-03-25T11:40:47;13.20;99.90
8988;DHT22;4529;51.360;12.474;2023-03-25T11:45:43;13.20;99.90
8988;DHT22;4529;51.360;12.474;2023-03-25T11:50:47;13.40;99.90
8988;DHT22;4529;51.360;12.474;2023-03-25T11:55:51;13.40;99.90
8988;DHT22;4529;51.360;12.474;2023-03-25T12:01:06;13.60;99.90
8988;DHT22;4529;51.360;12.474;2023-03-25T12:22:25;14.10;99.90
8988;DHT22;4529;51.360;12.474;2023-03-25T12:33:45;13.30;99.90
8988;DHT22;4529;51.360;12.474;2023-03-25T12:50:00;13.20;99.90
8988;DHT22;4529;51.360;12.474;2023-03-25T12:55:42;13.20;99.90
8988;DHT22;4529;51.360;12.474;2023-03-25T13:01:22;13.80;99.90
8988;DHT22;4529;51.360;12.474;2023-03-25T13:11:58;14.00;99.90
8988;DHT22;4529;51.360;12.474;2023-03-25T13:16:58;13.90;99.90
8988;DHT22;4529;51.360;12.474;2023-03-25T13:22:20;12.40;99.90
8988;DHT22;4529;51.360;12.474;2023-03-25T13:27:20;12.40;99.90
8988;DHT22;4529;51.360;12.474;2023-03-25T13:32:33;11.80;99.90
8988;DHT22;4529;51.360;12.474;2023-03-25T13:37:45;11.30;99.90
8988;DHT22;4529;51.360;12.474;2023-03-25T13:42:54;10.80;99.90
8988;DHT22;4529;51.360;12.474;2023-03-25T13:48:29;10.70;99.90
8988;DHT22;4529;51.360;12.474;2023-03-25T13:54:03;10.50;99.90
8988;DHT22;4529;51.360;12.474;2023-03-25T13:59:27;10.50;99.90
8988;DHT22;4529;51.360;12.474;2023-03-25T14:04:42;10.40;99.90
8988;DHT22;4529;51.360;12.474;2023-03-25T14:09:59;10.40;99.90
8988;DHT22;4529;51.360;12.474;2023-03-25T14:15:18;10.40;99.90
8988;DHT22;4529;51.360;12.474;2023-03-25T14:20:33;10.50;99.90
8988;DHT22;4529;51.360;12.474;2023-03-25T14:25:36;10.60;99.90
8988;DHT22;4529;51.360;12.474;2023-03-25T14:30:37;10.60;99.90
8988;DHT22;4529;51.360;12.474;2023-03-25T14:35:47;10.60;99.90
8988;DHT22;4529;51.360;12.474;2023-03-25T14:40:50;10.70;99.90
8988;DHT22;4529;51.360;12.474;2023-03-25T14:51:20;11.10;99.90
8988;DHT22;4529;51.360;12.474;2023-03-25T14:56:30;11.10;99.90
8988;DHT22;4529;51.360;12.474;2023-03-25T15:01:29;11.20;99.90
8988;DHT22;4529;51.360;12.474;2023-03-25T15:06:32;11.30;99.90
8988;DHT22;4529;51.360;12.474;2023-03-25T15:11:35;11.40;99.90
8988;DHT22;4529;51.360;12.474;2023-03-25T15:27:22;11.50;99.90
8988;DHT22;4529;51.360;12.474;2023-03-25T15:32:29;11.40;99.90
8988;DHT22;4529;51.360;12.474;2023-03-25T15:37:58;11.40;99.90
8988;DHT22;4529;51.360;12.474;2023-03-25T15:43:23;11.30;99.90
8988;DHT22;4529;51.360;12.474;2023-03-25T16:04:44;11.60;99.90
8988;DHT22;4529;51.360;12.474;2023-03-25T16:09:46;11.70;99.90
8988;DHT22;4529;51.360;12.474;2023-03-25T16:14:50;11.70;99.90
8988;DHT22;4529;51.360;12.474;2023-03-25T16:19:53;11.80;99.90
8988;DHT22;4529;51.360;12.474;2023-03-25T16:24:57;11.80;99.90
8988;DHT22;4529;51.360;12.474;2023-03-25T16:30:00;11.90;99.90
8988;DHT22;4529;51.360;12.474;2023-03-25T16:35:03;11.90;99.90
8988;DHT22;4529;51.360;12.474;2023-03-25T16:40:07;11.90;99.90
8988;DHT22;4529;51.360;12.474;2023-03-25T16:45:12;11.90;99.90
8988;DHT22;4529;51.360;12.474;2023-03-25T16:50:14;12.00;99.90
8988;DHT22;4529;51.360;12.474;2023-03-25T16:55:46;12.00;99.90
8988;DHT22;4529;51.360;12.474;2023-03-25T17:00:50;11.90;99.90
8988;DHT22;4529;51.360;12.474;2023-03-25T17:06:01;12.00;99.90
8988;DHT22;4529;51.360;12.474;2023-03-25T17:11:04;12.00;99.90
8988;DHT22;4529;51.360;12.474;2023-03-25T17:16:08;11.90;99.90
8988;DHT22;4529;51.360;12.474;2023-03-25T17:21:11;11.90;99.90
8988;DHT22;4529;51.360;12.474;2023-03-25T17:26:16;11.90;99.90
8988;DHT22;4529;51.360;12.474;2023-03-25T17:36:40;11.80;99.90
8988;DHT22;4529;51.360;12.474;2023-03-25T17:41:42;11.80;99.90
8988;DHT22;4529;51.360;12.474;2023-03-25T17:46:46;11.70;99.90
8988;DHT22;4529;51.360;12.474;2023-03-25T17:51:49;11.70;99.90
8988;DHT22;4529;51.360;12.474;2023-03-25T17:56:53;11.50;99.90
8988;DHT22;4529;51.360;12.474;2023-03-25T18:01:56;11.40;99.90
8988;DHT22;4529;51.360;12.474;2023-03-25T18:06:59;11.30;99.90
8988;DHT22;4529;51.360;12.474;2023-03-25T18:12:03;11.20;99.90
8988;DHT22;4529;51.360;12.474;2023-03-25T18:17:08;11.10;99.90
8988;DHT22;4529;51.360;12.474;2023-03-25T18:22:10;11.10;99.90
8988;DHT22;4529;51.360;12.474;2023-03-25T18:27:14;11.10;99.90
8988;DHT22;4529;51.360;12.474;2023-03-25T18:32:18;11.00;99.90
8988;DHT22;4529;51.360;12.474;2023-03-25T18:37:22;10.90;99.90
8988;DHT22;4529;51.360;12.474;2023-03-25T18:42:26;10.70;99.90
8988;DHT22;4529;51.360;12.474;2023-03-25T18:47:31;10.70;99.90
8988;DHT22;4529;51.360;12.474;2023-03-25T18:52:35;10.70;99.90
8988;DHT22;4529;51.360;12.474;2023-03-25T18:57:39;10.60;99.90
8988;DHT22;4529;51.360;12.474;2023-03-25T19:02:43;10.60;99.90
8988;DHT22;4529;51.360;12.474;2023-03-25T19:07:48;10.60;99.90
8988;DHT22;4529;51.360;12.474;2023-03-25T19:12:51;10.70;99.90
8988;DHT22;4529;51.360;12.474;2023-03-25T19:17:55;10.70;99.90
8988;DHT22;4529;51.360;12.474;2023-03-25T19:23:03;10.70;99.90
8988;DHT22;4529;51.360;12.474;2023-03-25T19:28:06;10.70;99.90
8988;DHT22;4529;51.360;12.474;2023-03-25T19:33:09;10.70;99.90
8988;DHT22;4529;51.360;12.474;2023-03-25T19:38:13;10.70;99.90
8988;DHT22;4529;51.360;12.474;2023-03-25T19:43:16;10.70;99.90
8988;DHT22;4529;51.360;12.474;2023-03-25T19:48:20;10.70;99.90
8988;DHT22;4529;51.360;12.474;2023-03-25T19:53:24;10.70;99.90
8988;DHT22;4529;51.360;12.474;2023-03-25T19:58:28;10.70;99.90
8988;DHT22;4529;51.360;12.474;2023-03-25T20:03:32;10.60;99.90
8988;DHT22;4529;51.360;12.474;2023-03-25T20:08:36;10.60;99.90
8988;DHT22;4529;51.360;12.474;2023-03-25T20:13:40;10.60;99.90
8988;DHT22;4529;51.360;12.474;2023-03-25T20:18:44;10.50;99.90
8988;DHT22;4529;51.360;12.474;2023-03-25T20:23:49;10.50;99.90
8988;DHT22;4529;51.360;12.474;2023-03-25T20:28:53;10.40;99.90
8988;DHT22;4529;51.360;12.474;2023-03-25T20:33:57;10.50;99.90
8988;DHT22;4529;51.360;12.474;2023-03-25T20:39:01;10.40;99.90
8988;DHT22;4529;51.360;12.474;2023-03-25T20:44:05;10.50;99.90
8988;DHT22;4529;51.360;12.474;2023-03-25T20:49:09;10.50;99.90
8988;DHT22;4529;51.360;12.474;2023-03-25T20:54:13;10.50;99.90
8988;DHT22;4529;51.360;12.474;2023-03-25T20:59:18;10.60;99.90
8988;DHT22;4529;51.360;12.474;2023-03-25T21:04:21;10.60;99.90
8988;DHT22;4529;51.360;12.474;2023-03-25T21:09:24;10.60;99.90
8988;DHT22;4529;51.360;12.474;2023-03-25T21:14:28;10.70;99.90
8988;DHT22;4529;51.360;12.474;2023-03-25T21:19:31;10.60;99.90
8988;DHT22;4529;51.360;12.474;2023-03-25T21:24:35;10.60;99.90
8988;DHT22;4529;51.360;12.474;2023-03-25T21:29:38;10.60;99.90
8988;DHT22;4529;51.360;12.474;2023-03-25T21:34:42;10.60;99.90
8988;DHT22;4529;51.360;12.474;2023-03-25T21:39:45;10.60;99.90
8988;DHT22;4529;51.360;12.474;2023-03-25T21:44:49;10.50;99.90
8988;DHT22;4529;51.360;12.474;2023-03-25T21:49:52;10.50;99.90
8988;DHT22;4529;51.360;12.474;2023-03-25T21:54:55;10.50;99.90
8988;DHT22;4529;51.360;12.474;2023-03-25T21:59:59;10.40;99.90
8988;DHT22;4529;51.360;12.474;2023-03-25T22:05:03;10.30;99.90
8988;DHT22;4529;51.360;12.474;2023-03-25T22:10:07;10.30;99.90
8988;DHT22;4529;51.360;12.474;2023-03-25T22:15:10;10.30;99.90
8988;DHT22;4529;51.360;12.474;2023-03-25T22:20:13;10.30;99.90
8988;DHT22;4529;51.360;12.474;2023-03-25T22:25:17;10.20;99.90
8988;DHT22;4529;51.360;12.474;2023-03-25T22:30:20;10.20;99.90
8988;DHT22;4529;51.360;12.474;2023-03-25T22:35:24;10.20;99.90
8988;DHT22;4529;51.360;12.474;2023-03-25T22:40:28;10.20;99.90
8988;DHT22;4529;51.360;12.474;2023-03-25T22:45:32;10.10;99.90
8988;DHT22;4529;51.360;12.474;2023-03-25T22:50:36;10.10;99.90
8988;DHT22;4529;51.360;12.474;2023-03-25T22:55:40;10.10;99.90
8988;DHT22;4529;51.360;12.474;2023-03-25T23:00:45;10.10;99.90
8988;DHT22;4529;51.360;12.474;2023-03-25T23:06:04;10.10;99.90
8988;DHT22;4529;51.360;12.474;2023-03-25T23:11:14;10.10;99.90
8988;DHT22;4529;51.360;12.474;2023-03-25T23:16:18;10.00;99.90
8988;DHT22;4529;51.360;12.474;2023-03-25T23:21:24;10.00;99.90
8988;DHT22;4529;51.360;12.474;2023-03-25T23:26:28;9.90;99.90
8988;DHT22;4529;51.360;12.474;2023-03-25T23:31:34;9.90;99.90
8988;DHT22;4529;51.360;12.474;2023-03-25T23:36:34;9.90;99.90
8988;DHT22;4529;51.360;12.474;2023-03-25T23:41:37;9.90;99.90
8988;DHT22;4529;51.360;12.474;2023-03-25T23:46:41;9.90;99.90
8988;DHT22;4529;51.360;12.474;2023-03-25T23:51:45;9.90;99.90
8988;DHT22;4529;51.360;12.474;2023-03-25T23:56:48;10.00;99.90
